Terminal Aerodrome Forecast
Issued by NWS Caribou, ME

Home | Current Version | Previous Version | Text Only | Print | Product List | Glossary On
Versions: 1 2 3 4 5 6 7 8 9 10 11 12 13 14
000
FTUS41 KCAR 221721
TAFCAR
TAF
KCAR 221721Z 2218/2318 33005KT P6SM FEW250
     FM230300 VRB03KT 3SM -SN OVC060
     FM230500 VRB03KT 1/2SM SN OVC045
     FM231600 12011KT 1SM -SN OVC003
     FM231700 12011G19KT 1SM -SNPL OVC003=

USA.gov is the U.S. government's official web portal to all federal, state and local government web resources and services.